Time;durP1;ratioP1;P1;durP2;ratioP2;P2;SDS_P1;SDS_P2;PMS_P1;PMS_P2;Temp;Humidity;BMP_temperature;BMP_pressure;BME280_temperature;BME280_humidity;BME280_pressure;Samples;Min_cycle;Max_cycle;Signal;HPM_P1;HPM_P2
2023/05/02 00:00:44;;;;;;;1.53;1.43;;;;;;;11.01;100.00;96326.53;5037570;28;20359;-71
2023/05/02 00:03:11;;;;;;;3.17;1.47;;;;;;;11.09;100.00;96328.28;5038315;28;20197;-70
2023/05/02 00:05:38;;;;;;;4.30;1.70;;;;;;;11.01;100.00;96326.53;5037962;28;21116;-72
2023/05/02 00:08:04;;;;;;;1.40;1.27;;;;;;;11.00;100.00;96327.53;5036631;28;20216;-69
2023/05/02 00:10:31;;;;;;;1.60;0.87;;;;;;;10.95;100.00;96318.53;5037719;28;20201;-72
2023/05/02 00:12:59;;;;;;;1.40;1.30;;;;;;;10.90;100.00;96330.59;5038258;28;20228;-71
2023/05/02 00:15:26;;;;;;;2.20;1.50;;;;;;;10.77;100.00;96327.72;5038236;28;20232;-70
2023/05/02 00:17:52;;;;;;;2.30;1.07;;;;;;;10.81;100.00;96326.38;5036734;28;21293;-72
2023/05/02 00:20:19;;;;;;;2.40;1.33;;;;;;;10.80;100.00;96330.00;5036920;28;20201;-70
2023/05/02 00:22:45;;;;;;;3.23;1.33;;;;;;;10.80;100.00;96332.66;5037048;28;20295;-71
2023/05/02 00:25:15;;;;;;;1.63;1.03;;;;;;;10.69;100.00;96335.69;5038421;28;20225;-71
2023/05/02 00:27:41;;;;;;;2.70;1.40;;;;;;;10.78;100.00;96329.34;5036912;28;20205;-71
2023/05/02 00:30:10;;;;;;;1.27;1.13;;;;;;;10.80;100.00;96336.09;5037187;28;20201;-71
2023/05/02 00:32:37;;;;;;;1.97;1.07;;;;;;;10.71;100.00;96329.25;5037495;28;20211;-71
2023/05/02 00:35:03;;;;;;;2.30;1.70;;;;;;;10.73;100.00;96335.16;5036500;28;21425;-71
2023/05/02 00:37:30;;;;;;;1.73;1.20;;;;;;;10.64;100.00;96330.09;5037242;28;20204;-70
2023/05/02 00:39:56;;;;;;;1.73;1.23;;;;;;;10.62;100.00;96334.75;5036898;28;20219;-70
2023/05/02 00:42:23;;;;;;;1.90;1.17;;;;;;;10.64;100.00;96328.31;5036802;28;20198;-70
2023/05/02 00:44:49;;;;;;;2.33;1.03;;;;;;;10.60;100.00;96331.47;5036402;28;20231;-70
2023/05/02 00:47:17;;;;;;;1.70;1.20;;;;;;;10.64;100.00;96327.47;5036204;28;20212;-70
2023/05/02 00:49:44;;;;;;;3.60;1.23;;;;;;;10.45;100.00;96328.75;5037148;28;20209;-70
2023/05/02 00:52:10;;;;;;;2.03;1.40;;;;;;;10.48;100.00;96330.22;5035939;28;20213;-70
2023/05/02 00:54:38;;;;;;;1.50;1.30;;;;;;;10.50;100.00;96326.44;5036104;28;20710;-71
2023/05/02 00:57:04;;;;;;;2.33;1.47;;;;;;;10.52;100.00;96323.59;5036508;28;20201;-69
2023/05/02 00:59:31;;;;;;;2.40;1.23;;;;;;;10.49;100.00;96318.69;5036126;28;20212;-70
2023/05/02 01:02:08;;;;;;;1.53;1.33;;;;;;;10.55;100.00;96321.47;5035916;28;20213;-70
2023/05/02 01:04:43;;;;;;;2.27;1.07;;;;;;;10.52;100.00;96324.41;5036246;28;20224;-71
2023/05/02 01:07:20;;;;;;;4.77;1.50;;;;;;;10.49;100.00;96329.25;5036268;28;20204;-70
2023/05/02 01:09:57;;;;;;;0.93;0.90;;;;;;;10.50;100.00;96326.44;5036027;28;20205;-70
2023/05/02 01:12:27;;;;;;;1.53;1.23;;;;;;;10.47;100.00;96331.22;5036623;28;20201;-71
2023/05/02 01:14:57;;;;;;;2.27;1.33;;;;;;;10.43;100.00;96324.66;5035686;28;20307;-71
2023/05/02 01:17:27;;;;;;;1.00;0.87;;;;;;;10.40;100.00;96322.38;5036330;28;20211;-70
2023/05/02 01:19:58;;;;;;;2.17;1.13;;;;;;;10.40;100.00;96333.72;5035880;28;20205;-71
2023/05/02 01:22:28;;;;;;;2.80;1.37;;;;;;;10.34;100.00;96333.59;5036188;28;20223;-71
2023/05/02 01:25:05;;;;;;;1.83;1.23;;;;;;;10.44;100.00;96331.56;5035459;28;20229;-71
2023/05/02 01:27:40;;;;;;;2.03;1.20;;;;;;;10.40;100.00;96333.72;5036538;28;20772;-72
2023/05/02 01:30:11;;;;;;;2.07;1.23;;;;;;;10.33;100.00;96339.84;5035893;28;20986;-70
2023/05/02 01:32:40;;;;;;;1.17;1.00;;;;;;;10.35;100.00;96340.50;5036048;28;20205;-70
2023/05/02 01:35:08;;;;;;;2.60;2.00;;;;;;;10.27;100.00;96342.34;5035773;28;20233;-71
2023/05/02 01:37:36;;;;;;;1.20;1.07;;;;;;;10.27;100.00;96335.25;5035771;28;20224;-70
2023/05/02 01:40:06;;;;;;;3.07;1.60;;;;;;;10.28;100.00;96347.44;5035752;28;20213;-71
2023/05/02 01:42:36;;;;;;;2.17;1.17;;;;;;;10.25;100.00;96339.91;5035537;28;20213;-72
2023/05/02 01:45:04;;;;;;;1.63;1.20;;;;;;;10.20;100.00;96347.50;5036292;28;20216;-71
2023/05/02 01:47:35;;;;;;;2.87;1.40;;;;;;;10.24;100.00;96346.16;5035115;28;20228;-71
2023/05/02 01:50:05;;;;;;;2.03;1.50;;;;;;;10.13;100.00;96354.47;5035663;28;20220;-71
2023/05/02 01:52:33;;;;;;;2.03;1.80;;;;;;;10.22;100.00;96353.44;5035747;28;20254;-71
2023/05/02 01:55:01;;;;;;;1.53;1.20;;;;;;;10.15;100.00;96347.19;5035391;28;20233;-70
2023/05/02 01:57:27;;;;;;;1.90;1.60;;;;;;;10.14;100.00;96350.00;5035083;28;20936;-71
2023/05/02 01:59:56;;;;;;;2.00;1.23;;;;;;;10.14;100.00;96350.00;5035706;28;20212;-70
2023/05/02 02:02:26;;;;;;;2.33;1.37;;;;;;;10.20;100.00;96341.41;5034798;28;20216;-70
2023/05/02 02:04:56;;;;;;;1.83;1.43;;;;;;;10.19;100.00;96348.47;5035882;28;20224;-71
2023/05/02 02:07:23;;;;;;;2.13;1.20;;;;;;;10.07;100.00;96355.13;5035362;28;20220;-70
2023/05/02 02:09:49;;;;;;;2.90;1.90;;;;;;;10.10;100.00;96360.03;5035359;28;20591;-70
2023/05/02 02:12:23;;;;;;;0.90;0.90;;;;;;;10.10;100.00;96359.22;5034897;28;20201;-71
2023/05/02 02:14:55;;;;;;;1.60;1.00;;;;;;;10.15;100.00;96352.44;5034212;28;20237;-71
2023/05/02 02:17:26;;;;;;;2.23;1.50;;;;;;;10.02;100.00;96357.44;5034572;28;20201;-71
2023/05/02 02:19:57;;;;;;;4.17;1.63;;;;;;;10.11;100.00;96361.69;5034755;28;20685;-70
2023/05/02 02:22:26;;;;;;;1.67;1.00;;;;;;;10.04;100.00;96366.00;5035350;28;20205;-71
2023/05/02 02:24:54;;;;;;;4.33;1.23;;;;;;;10.05;100.00;96364.19;5035188;28;20217;-71
2023/05/02 02:27:20;;;;;;;2.90;1.80;;;;;;;9.84;100.00;96359.47;5034518;28;20221;-71
2023/05/02 02:29:47;;;;;;;1.33;1.10;;;;;;;9.88;100.00;96371.28;5035310;28;20197;-71
2023/05/02 02:32:14;;;;;;;4.60;2.27;;;;;;;9.90;100.00;96369.31;5032163;28;20212;-72
2023/05/02 02:34:40;;;;;;;1.53;1.33;;;;;;;9.96;100.00;96366.03;5034767;28;20233;-70
2023/05/02 02:37:14;;;;;;;2.57;1.93;;;;;;;10.02;100.00;96367.97;5035082;28;20228;-70
2023/05/02 02:39:50;;;;;;;4.27;1.50;;;;;;;9.97;100.00;96372.94;5035925;28;20284;-71
2023/05/02 02:42:25;;;;;;;1.60;1.33;;;;;;;9.96;100.00;96373.91;5035274;28;20205;-70
2023/05/02 02:44:57;;;;;;;2.00;1.23;;;;;;;9.96;100.00;96379.19;5034581;28;21331;-70
2023/05/02 02:47:29;;;;;;;3.37;1.70;;;;;;;9.92;100.00;96372.59;5034166;28;20198;-69
2023/05/02 02:50:10;;;;;;;1.67;1.50;;;;;;;10.00;100.00;96379.66;5035488;28;20205;-70
2023/05/02 02:52:53;;;;;;;1.83;1.27;;;;;;;9.98;100.00;96382.47;5035639;28;20298;-70
2023/05/02 02:55:29;;;;;;;2.10;1.30;;;;;;;10.00;100.00;96374.41;5034814;28;20240;-70
2023/05/02 02:58:00;;;;;;;1.77;1.27;;;;;;;10.04;100.00;96376.53;5034603;28;20586;-70
2023/05/02 03:00:28;;;;;;;1.33;1.00;;;;;;;9.94;100.00;96383.78;5034923;28;20201;-71
2023/05/02 03:02:56;;;;;;;2.47;1.40;;;;;;;9.86;100.00;96381.19;5035543;28;20216;-72
2023/05/02 03:05:23;;;;;;;1.30;1.20;;;;;;;9.80;100.00;96379.22;5034761;28;20233;-70
2023/05/02 03:07:51;;;;;;;1.33;1.23;;;;;;;9.83;100.00;96388.59;5034184;28;20556;-72
2023/05/02 03:10:18;;;;;;;1.83;1.10;;;;;;;9.80;100.00;96389.75;5034647;28;20220;-70
2023/05/02 03:12:44;;;;;;;4.63;2.07;;;;;;;9.81;100.00;96394.03;5035449;28;20209;-70
2023/05/02 03:15:41;;;;;;;3.13;1.93;;;;;;;9.91;100.00;96405.16;5034498;28;20240;-70
2023/05/02 03:18:07;;;;;;;2.50;1.43;;;;;;;9.78;100.00;96409.31;5034336;28;20202;-70
2023/05/02 03:20:34;;;;;;;2.07;1.30;;;;;;;9.73;100.00;96406.38;5035524;28;20590;-69
2023/05/02 03:23:02;;;;;;;2.27;1.50;;;;;;;9.78;100.00;96412.75;5034219;28;20244;-71
2023/05/02 03:25:28;;;;;;;3.50;1.50;;;;;;;9.72;100.00;96408.19;5037180;28;20232;-71
2023/05/02 03:27:57;;;;;;;2.10;1.00;;;;;;;9.81;100.00;96415.06;5038097;28;20201;-70
2023/05/02 03:30:23;;;;;;;2.53;1.90;;;;;;;9.73;100.00;96415.06;5037469;28;20987;-71
2023/05/02 03:32:49;;;;;;;1.80;1.27;;;;;;;9.70;100.00;96410.16;5038021;28;20224;-70
2023/05/02 03:35:16;;;;;;;3.30;2.10;;;;;;;9.70;100.00;96415.41;5038542;28;20233;-70
2023/05/02 03:37:42;;;;;;;2.60;2.27;;;;;;;9.63;100.00;96413.59;5036989;28;20932;-71
2023/05/02 03:40:11;;;;;;;4.07;1.43;;;;;;;9.71;100.00;96411.78;5037959;28;20231;-70
2023/05/02 03:42:39;;;;;;;2.83;1.33;;;;;;;9.70;100.00;96415.41;5038814;28;20213;-70
2023/05/02 03:45:07;;;;;;;3.73;2.17;;;;;;;9.70;100.00;96411.97;5038002;28;20221;-69
2023/05/02 03:47:33;;;;;;;3.90;2.13;;;;;;;9.67;100.00;96419.38;5036992;28;20212;-70
2023/05/02 03:50:00;;;;;;;2.53;1.40;;;;;;;9.67;100.00;96425.44;5038264;28;20211;-70
2023/05/02 03:52:27;;;;;;;2.73;1.87;;;;;;;9.70;100.00;96433.81;5038473;28;20284;-70
2023/05/02 03:54:53;;;;;;;1.57;1.23;;;;;;;9.72;100.00;96438.91;5037421;28;20233;-71
2023/05/02 03:57:21;;;;;;;1.90;1.30;;;;;;;9.76;100.00;96435.81;5037628;28;20201;-69
2023/05/02 03:59:48;;;;;;;2.20;1.47;;;;;;;9.68;100.00;96436.81;5037904;28;20209;-71
2023/05/02 04:02:14;;;;;;;2.73;1.33;;;;;;;9.62;100.00;96438.28;5037885;28;20209;-70
2023/05/02 04:04:41;;;;;;;6.43;1.70;;;;;;;9.69;100.00;96437.44;5037133;28;20221;-72
2023/05/02 04:07:14;;;;;;;2.50;1.10;;;;;;;9.66;100.00;96446.66;5037732;28;20205;-71
2023/05/02 04:09:40;;;;;;;2.00;1.10;;;;;;;9.58;100.00;96450.13;5037061;28;20209;-71
2023/05/02 04:12:07;;;;;;;1.80;1.17;;;;;;;9.61;100.00;96444.53;5037372;28;20209;-72
2023/05/02 04:14:35;;;;;;;5.97;2.47;;;;;;;9.66;100.00;96446.66;5037172;28;20623;-70
2023/05/02 04:17:01;;;;;;;4.20;2.27;;;;;;;9.60;100.00;96455.22;5037306;28;20205;-71
2023/05/02 04:19:28;;;;;;;3.30;1.63;;;;;;;9.74;100.00;96452.75;5036871;28;20213;-70
2023/05/02 04:21:54;;;;;;;3.90;2.47;;;;;;;9.65;100.00;96459.00;5037328;28;20212;-72
2023/05/02 04:24:22;;;;;;;2.33;1.40;;;;;;;9.79;100.00;96464.41;5036607;28;20552;-70
2023/05/02 04:26:48;;;;;;;2.13;1.17;;;;;;;9.75;100.00;96471.00;5037429;28;20232;-70
2023/05/02 04:29:15;;;;;;;3.43;2.27;;;;;;;9.74;100.00;96474.59;5036263;28;20210;-72
2023/05/02 04:31:43;;;;;;;1.87;1.30;;;;;;;9.80;100.00;96484.47;5037737;28;20213;-70
2023/05/02 04:34:09;;;;;;;1.97;1.60;;;;;;;9.74;100.00;96485.13;5036457;28;20209;-72
2023/05/02 04:36:36;;;;;;;4.40;2.00;;;;;;;9.82;100.00;96485.13;5036391;28;20225;-70
2023/05/02 04:39:03;;;;;;;3.00;1.67;;;;;;;9.84;100.00;96490.25;5036411;28;20799;-71
2023/05/02 04:41:30;;;;;;;3.00;2.13;;;;;;;9.88;100.00;96487.09;5037568;28;20205;-71
2023/05/02 04:43:57;;;;;;;2.50;1.87;;;;;;;9.88;100.00;96497.63;5036136;28;20213;-70
2023/05/02 04:46:23;;;;;;;2.53;1.57;;;;;;;9.96;100.00;96499.47;5036963;28;20226;-71
2023/05/02 04:48:51;;;;;;;2.70;1.77;;;;;;;10.07;100.00;96496.47;5036555;28;20213;-70
2023/05/02 04:51:18;;;;;;;2.23;1.47;;;;;;;10.10;100.00;96502.22;5037307;28;20205;-70
2023/05/02 04:53:44;;;;;;;1.53;1.23;;;;;;;10.02;100.00;96499.63;5036704;28;20201;-71
2023/05/02 04:56:11;;;;;;;1.80;1.53;;;;;;;9.97;100.00;96517.72;5036827;28;20229;-70
2023/05/02 04:58:37;;;;;;;2.03;1.13;;;;;;;10.08;100.00;96506.84;5035860;28;20263;-70
2023/05/02 05:01:04;;;;;;;3.03;1.73;;;;;;;9.96;100.00;96513.44;5037211;28;20209;-70
2023/05/02 05:03:31;;;;;;;3.43;1.60;;;;;;;10.03;100.00;96508.31;5036718;28;20206;-70
2023/05/02 05:05:59;;;;;;;4.07;2.13;;;;;;;10.13;100.00;96517.72;5035991;28;20226;-70
2023/05/02 05:08:26;;;;;;;1.67;1.30;;;;;;;10.05;100.00;96514.25;5035954;28;20205;-70
2023/05/02 05:10:52;;;;;;;2.30;2.10;;;;;;;9.98;100.00;96516.72;5036453;28;20213;-70
2023/05/02 05:13:19;;;;;;;2.23;1.67;;;;;;;9.93;100.00;96524.28;5036340;28;20217;-70
2023/05/02 05:15:45;;;;;;;5.97;1.80;;;;;;;10.09;100.00;96523.47;5036058;28;20228;-70
2023/05/02 05:18:12;;;;;;;4.00;2.57;;;;;;;10.08;100.00;96525.28;5035854;28;21271;-70
2023/05/02 05:20:38;;;;;;;3.43;1.90;;;;;;;10.06;100.00;96521.97;5035464;28;20205;-69
2023/05/02 05:23:06;;;;;;;4.50;2.53;;;;;;;10.24;100.00;96527.88;5036662;28;20302;-70
2023/05/02 05:25:33;;;;;;;3.17;2.47;;;;;;;10.27;100.00;96530.16;5035971;28;20252;-70
2023/05/02 05:28:00;;;;;;;4.43;2.13;;;;;;;10.35;100.00;96524.91;5035537;28;20303;-70
2023/05/02 05:30:26;;;;;;;5.93;2.80;;;;;;;10.46;100.00;96524.53;5035979;28;20206;-70
2023/05/02 05:32:53;;;;;;;4.63;2.77;;;;;;;10.63;100.00;96523.50;5036117;28;20323;-70
2023/05/02 05:35:19;;;;;;;3.23;1.90;;;;;;;10.65;100.00;96524.13;5036033;28;20236;-70
2023/05/02 05:37:46;;;;;;;2.70;2.00;;;;;;;10.62;100.00;96530.56;5035130;28;20853;-70
2023/05/02 05:40:14;;;;;;;4.57;2.80;;;;;;;10.88;100.00;96527.66;5035452;28;20626;-70
2023/05/02 05:42:40;;;;;;;6.40;3.03;;;;;;;10.98;100.00;96532.56;5035509;28;20205;-70
2023/05/02 05:45:08;;;;;;;3.73;2.67;;;;;;;10.82;100.00;96536.25;5035776;28;20244;-70
2023/05/02 05:47:34;;;;;;;6.33;2.87;;;;;;;10.91;100.00;96535.22;5035268;28;20213;-70
2023/05/02 05:50:01;;;;;;;4.30;2.20;;;;;;;10.97;100.00;96536.19;5036234;28;20574;-70
2023/05/02 05:52:27;;;;;;;5.60;2.70;;;;;;;11.04;100.00;96547.69;5035306;28;20201;-70
2023/05/02 05:54:55;;;;;;;4.67;3.70;;;;;;;11.08;100.00;96551.63;5035199;28;20233;-70
2023/05/02 05:57:23;;;;;;;4.67;3.03;;;;;;;11.28;100.00;96554.66;5035058;28;20234;-70
2023/05/02 05:59:50;;;;;;;6.40;2.80;;;;;;;11.23;100.00;96549.91;5034471;28;20213;-70
2023/05/02 06:02:18;;;;;;;7.70;2.87;;;;;;;10.81;100.00;96555.72;5035739;28;21120;-70
2023/05/02 06:04:44;;;;;;;4.90;2.50;;;;;;;10.89;100.00;96553.03;5035091;28;20229;-70
2023/05/02 06:07:11;;;;;;;3.53;2.43;;;;;;;11.11;100.00;96556.56;5035030;28;20888;-70
2023/05/02 06:09:37;;;;;;;4.20;2.60;;;;;;;11.19;100.00;96556.50;5035205;28;20217;-70
2023/05/02 06:12:04;;;;;;;6.90;2.73;;;;;;;11.24;100.00;96558.63;5035492;28;20212;-70
2023/05/02 06:14:32;;;;;;;3.53;1.90;;;;;;;11.39;100.00;96560.38;5035181;28;20205;-70
2023/05/02 06:16:59;;;;;;;3.37;2.27;;;;;;;11.25;100.00;96565.53;5035268;28;20570;-70
2023/05/02 06:19:25;;;;;;;5.70;2.47;;;;;;;11.38;100.00;96566.63;5035105;28;20279;-70
2023/05/02 06:21:52;;;;;;;5.30;1.90;;;;;;;11.27;100.00;96572.28;5034680;28;20216;-70
2023/05/02 06:24:18;;;;;;;6.17;3.03;;;;;;;11.35;100.00;96571.44;5035546;28;20205;-70
2023/05/02 06:26:45;;;;;;;12.97;2.83;;;;;;;11.59;100.00;96569.50;5035834;28;20208;-70
2023/05/02 06:29:11;;;;;;;3.33;2.47;;;;;;;11.79;100.00;96571.50;5034801;28;20212;-70
2023/05/02 06:31:39;;;;;;;4.40;2.40;;;;;;;11.87;100.00;96573.25;5035729;28;20212;-70
2023/05/02 06:34:05;;;;;;;4.97;2.60;;;;;;;12.01;100.00;96575.13;5035171;28;20214;-70
2023/05/02 06:36:32;;;;;;;4.07;2.70;;;;;;;11.98;100.00;96578.13;5035224;28;20229;-70
2023/05/02 06:38:58;;;;;;;4.33;2.27;;;;;;;11.92;100.00;96581.47;5034017;28;20221;-70
2023/05/02 06:41:25;;;;;;;3.07;2.37;;;;;;;12.02;100.00;96582.88;5036231;28;20220;-71
2023/05/02 06:43:51;;;;;;;3.90;2.83;;;;;;;12.02;100.00;96587.34;5034465;28;20205;-70
2023/05/02 06:46:19;;;;;;;5.33;2.83;;;;;;;12.20;100.00;96589.47;5034962;28;20225;-70
2023/05/02 06:48:47;;;;;;;2.00;1.60;;;;;;;12.28;100.00;96594.72;5034792;28;20207;-70
2023/05/02 06:51:14;;;;;;;4.63;2.42;;;;;;;12.07;100.00;96600.84;5035215;28;20201;-70
2023/05/02 06:53:41;;;;;;;10.63;3.33;;;;;;;12.33;100.00;96599.44;5034419;28;20213;-69
2023/05/02 06:56:08;;;;;;;3.87;2.30;;;;;;;12.29;100.00;96598.97;5035060;28;20283;-70
2023/05/02 06:58:34;;;;;;;3.63;2.37;;;;;;;12.37;100.00;96608.66;5034115;28;20296;-71
2023/05/02 07:01:01;;;;;;;3.77;2.53;;;;;;;12.23;100.00;96607.63;5037335;28;20209;-68
2023/05/02 07:03:27;;;;;;;2.97;1.97;;;;;;;12.30;100.00;96605.91;5039095;28;20209;-68
2023/05/02 07:05:55;;;;;;;3.77;2.30;;;;;;;12.46;100.00;96608.41;5039109;28;20228;-70
2023/05/02 07:08:22;;;;;;;4.20;2.80;;;;;;;12.43;100.00;96613.22;5038079;28;20209;-70
2023/05/02 07:10:49;;;;;;;4.23;3.30;;;;;;;12.40;100.00;96618.88;5038629;28;20205;-69
2023/05/02 07:13:16;;;;;;;4.10;2.83;;;;;;;12.42;100.00;96611.59;5038231;28;20205;-72
2023/05/02 07:15:43;;;;;;;4.97;2.80;;;;;;;12.61;100.00;96622.47;5038174;28;20232;-71
2023/05/02 07:18:09;;;;;;;6.27;2.83;;;;;;;12.66;100.00;96619.28;5037681;28;20209;-70
2023/05/02 07:20:37;;;;;;;4.65;2.28;;;;;;;12.52;100.00;96618.25;5038629;28;20210;-69
2023/05/02 07:23:05;;;;;;;3.87;2.33;;;;;;;12.67;100.00;96624.41;5037179;28;20267;-69
2023/05/02 07:25:32;;;;;;;5.07;3.30;;;;;;;12.76;100.00;96628.59;5038293;28;20220;-68
2023/05/02 07:27:58;;;;;;;7.97;3.17;;;;;;;12.90;100.00;96627.81;5037541;28;20225;-70
2023/05/02 07:30:24;;;;;;;4.17;2.50;;;;;;;12.78;100.00;96623.97;5037969;28;20206;-70
2023/05/02 07:32:51;;;;;;;2.65;1.98;;;;;;;12.67;100.00;96620.94;5037614;28;20574;-70
2023/05/02 07:35:17;;;;;;;4.60;3.10;;;;;;;12.41;100.00;96621.34;5037764;28;20229;-70
2023/05/02 07:37:44;;;;;;;5.63;3.00;;;;;;;12.41;100.00;96629.28;5037262;28;20213;-70
2023/05/02 07:40:12;;;;;;;4.25;2.53;;;;;;;12.37;100.00;96630.63;5036876;28;20224;-70
2023/05/02 07:42:40;;;;;;;5.30;2.70;;;;;;;12.42;100.00;96638.84;5038168;28;21010;-70
2023/05/02 07:45:07;;;;;;;4.30;2.17;;;;;;;12.58;100.00;96630.75;5036405;28;20220;-70
2023/05/02 07:47:34;;;;;;;3.92;2.83;;;;;;;12.27;100.00;96634.50;5036819;28;20209;-70
2023/05/02 07:50:02;;;;;;;7.63;3.87;;;;;;;12.43;100.00;96632.53;5037676;28;20256;-70
2023/05/02 07:52:29;;;;;;;6.73;3.70;;;;;;;12.49;100.00;96631.03;5038725;28;20212;-70
2023/05/02 07:54:56;;;;;;;8.07;3.30;;;;;;;12.20;100.00;96639.66;5036099;28;20229;-70
2023/05/02 07:57:24;;;;;;;5.03;2.90;;;;;;;12.49;100.00;96633.69;5037627;28;20265;-69
2023/05/02 07:59:50;;;;;;;5.07;2.53;;;;;;;12.36;100.00;96639.56;5037722;28;20208;-70
2023/05/02 08:02:18;;;;;;;3.87;2.30;;;;;;;12.62;100.00;96649.75;5037611;28;20218;-70
2023/05/02 08:04:45;;;;;;;5.10;2.70;;;;;;;12.56;100.00;96647.81;5036573;28;20221;-70
2023/05/02 08:07:12;;;;;;;7.30;2.93;;;;;;;12.57;100.00;96660.84;5037150;28;20234;-70
2023/05/02 08:09:38;;;;;;;5.55;3.17;;;;;;;12.52;100.00;96657.09;5036296;28;20216;-70
2023/05/02 08:12:05;;;;;;;5.82;3.13;;;;;;;12.55;100.00;96654.94;5036739;28;20212;-70
2023/05/02 08:14:33;;;;;;;4.70;2.83;;;;;;;12.83;100.00;96653.34;5037019;28;20210;-70
2023/05/02 08:17:00;;;;;;;4.07;3.00;;;;;;;12.91;100.00;96650.63;5036929;28;20225;-70
2023/05/02 08:19:27;;;;;;;4.40;2.33;;;;;;;12.91;100.00;96661.22;5035834;28;20204;-70
2023/05/02 08:21:54;;;;;;;4.07;2.67;;;;;;;12.95;100.00;96662.50;5037056;28;20295;-70
2023/05/02 08:24:20;;;;;;;6.50;3.28;;;;;;;13.12;100.00;96658.66;5035781;28;20200;-71
2023/05/02 08:26:47;;;;;;;7.07;2.90;;;;;;;13.19;100.00;96667.53;5036672;28;20205;-70
2023/05/02 08:29:13;;;;;;;7.32;4.43;;;;;;;13.08;100.00;96668.78;5035761;28;20692;-70
2023/05/02 08:31:41;;;;;;;6.88;3.17;;;;;;;13.33;100.00;96661.38;5036630;28;20751;-70
2023/05/02 08:34:07;;;;;;;6.57;3.42;;;;;;;13.39;100.00;96664.97;5037109;28;20209;-70
2023/05/02 08:36:34;;;;;;;7.85;3.28;;;;;;;13.49;100.00;96668.16;5036842;28;20228;-70
2023/05/02 08:39:00;;;;;;;4.55;2.97;;;;;;;13.56;100.00;96671.69;5037251;28;20212;-70
2023/05/02 08:41:29;;;;;;;7.93;3.50;;;;;;;13.45;100.00;96672.19;5036653;28;20205;-69
2023/05/02 08:43:56;;;;;;;6.95;3.58;;;;;;;13.42;100.00;96677.00;5037181;28;20201;-70
2023/05/02 08:46:23;;;;;;;5.60;3.65;;;;;;;13.66;100.00;96672.22;5037287;28;20217;-70
2023/05/02 08:48:52;;;;;;;7.70;3.63;;;;;;;13.79;100.00;96674.22;5036070;28;20197;-70
2023/05/02 08:51:18;;;;;;;5.88;3.72;;;;;;;13.57;100.00;96678.63;5035617;28;20665;-70
2023/05/02 08:53:45;;;;;;;5.07;3.03;;;;;;;13.63;100.00;96685.00;5033937;28;20449;-70
2023/05/02 08:56:13;;;;;;;6.18;3.38;;;;;;;13.83;100.00;96692.19;5033755;28;20225;-70
2023/05/02 08:58:40;;;;;;;4.35;2.88;;;;;;;13.72;100.00;96684.75;5034829;28;20209;-70
2023/05/02 09:01:12;;;;;;;7.07;3.55;;;;;;;14.02;100.00;96692.41;5035730;28;20583;-71
2023/05/02 09:03:40;;;;;;;9.52;4.00;;;;;;;14.22;100.00;96692.69;5035396;28;20212;-73
2023/05/02 09:06:09;;;;;;;8.73;4.15;;;;;;;14.30;95.75;96692.56;5034256;28;20225;-70
2023/05/02 09:08:36;;;;;;;5.43;2.83;;;;;;;14.18;97.73;96696.72;5035060;28;20209;-73
2023/05/02 09:11:03;;;;;;;4.45;2.85;;;;;;;14.18;98.20;96704.69;5035368;28;20216;-69
2023/05/02 09:13:34;;;;;;;5.45;3.10;;;;;;;14.23;97.53;96700.44;5034556;28;20962;-73
2023/05/02 09:16:02;;;;;;;5.88;2.83;;;;;;;14.50;97.63;96704.16;5034556;28;20240;-70
2023/05/02 09:18:31;;;;;;;5.65;3.03;;;;;;;14.39;96.18;96702.03;5033865;28;20201;-69
2023/05/02 09:21:01;;;;;;;5.78;3.20;;;;;;;14.58;96.75;96702.22;5033715;28;20237;-72
2023/05/02 09:23:40;;;;;;;7.90;3.78;;;;;;;14.58;96.36;96698.75;5034049;28;20208;-69
2023/05/02 09:26:15;;;;;;;4.25;2.65;;;;;;;14.72;96.74;96699.47;5035542;28;20230;-72
2023/05/02 09:28:44;;;;;;;6.63;2.90;;;;;;;14.60;96.22;96699.38;5034425;28;20240;-73
2023/05/02 09:31:12;;;;;;;6.32;3.58;;;;;;;14.74;95.90;96697.47;5035313;28;20209;-74
2023/05/02 09:33:39;;;;;;;6.05;3.50;;;;;;;15.06;94.86;96699.56;5034811;28;20208;-70
2023/05/02 09:36:07;;;;;;;6.75;3.28;;;;;;;15.46;97.24;96696.19;5035031;28;20240;-71
2023/05/02 09:38:33;;;;;;;3.63;2.50;;;;;;;14.86;90.28;96701.22;5034152;28;20303;-70
2023/05/02 09:41:02;;;;;;;5.55;2.65;;;;;;;15.28;89.00;96709.13;5035109;28;20209;-74
2023/05/02 09:43:29;;;;;;;6.85;3.20;;;;;;;15.41;89.88;96710.06;5034348;28;20205;-73
2023/05/02 09:46:00;;;;;;;4.95;2.60;;;;;;;15.47;89.52;96714.56;5033718;28;20225;-70
2023/05/02 09:48:28;;;;;;;9.15;3.15;;;;;;;15.38;88.20;96709.63;5034402;28;20240;-70
2023/05/02 09:50:55;;;;;;;5.32;2.90;;;;;;;15.38;93.93;96720.25;5033866;28;20228;-74
2023/05/02 09:53:24;;;;;;;4.72;2.28;;;;;;;15.02;89.18;96713.41;5034434;28;20205;-72
2023/05/02 09:56:01;;;;;;;3.88;2.00;;;;;;;15.38;88.43;96721.06;5034532;28;20220;-69
2023/05/02 09:58:29;;;;;;;5.00;2.60;;;;;;;15.10;87.94;96722.06;5033671;28;20201;-72
2023/05/02 10:00:57;;;;;;;4.53;2.30;;;;;;;15.47;91.17;96724.38;5034691;28;21138;-72
2023/05/02 10:03:24;;;;;;;3.35;2.08;;;;;;;15.53;86.62;96723.59;5034987;28;20677;-70
2023/05/02 10:05:52;;;;;;;4.95;2.75;;;;;;;15.51;84.57;96717.66;5034747;28;20240;-71
2023/05/02 10:08:20;;;;;;;4.40;3.03;;;;;;;15.88;85.66;96723.38;5033431;28;20208;-70
2023/05/02 10:10:52;;;;;;;4.10;2.75;;;;;;;15.73;87.86;96714.72;5035669;28;20219;-75
2023/05/02 10:13:23;;;;;;;5.35;2.75;;;;;;;15.92;84.18;96732.59;5034938;28;20213;-72
2023/05/02 10:15:54;;;;;;;4.55;2.65;;;;;;;15.63;85.78;96724.06;5034883;28;20310;-71
2023/05/02 10:18:25;;;;;;;5.47;3.05;;;;;;;15.63;84.68;96726.72;5035328;28;20257;-68
2023/05/02 10:20:57;;;;;;;7.60;3.42;;;;;;;15.81;87.96;96727.00;5036241;28;20704;-72
2023/05/02 10:23:26;;;;;;;5.88;3.35;;;;;;;16.08;88.89;96719.78;5034651;28;20233;-73
2023/05/02 10:25:54;;;;;;;5.40;2.83;;;;;;;16.48;86.32;96713.59;5035102;28;20252;-75
2023/05/02 10:28:23;;;;;;;6.95;3.45;;;;;;;16.70;82.72;96715.03;5034930;28;20213;-69
2023/05/02 10:30:50;;;;;;;6.75;3.58;;;;;;;16.62;79.67;96721.41;5034958;28;20277;-72
2023/05/02 10:33:18;;;;;;;5.82;3.33;;;;;;;17.17;80.28;96711.19;5034823;28;21114;-71
2023/05/02 10:35:46;;;;;;;6.85;2.90;;;;;;;17.13;78.76;96709.97;5037353;28;20225;-74
2023/05/02 10:38:15;;;;;;;5.35;3.00;;;;;;;17.66;79.71;96708.88;5038081;28;20264;-70
2023/05/02 10:40:47;;;;;;;6.15;3.45;;;;;;;17.65;75.08;96696.56;5038930;28;21055;-72
2023/05/02 10:43:16;;;;;;;6.90;3.85;;;;;;;17.64;79.14;96702.94;5039523;28;20216;-73
2023/05/02 10:45:43;;;;;;;7.70;3.33;;;;;;;17.51;75.56;96697.63;5038819;28;20251;-73
2023/05/02 10:48:18;;;;;;;5.88;3.05;;;;;;;17.38;80.85;96700.31;5038743;28;20205;-76
2023/05/02 10:50:50;;;;;;;7.10;3.50;;;;;;;17.55;73.98;96700.72;5038767;28;20208;-74
2023/05/02 10:53:31;;;;;;;5.35;2.65;;;;;;;17.74;79.43;96696.16;5038549;28;20220;-70
2023/05/02 10:56:15;;;;;;;5.00;2.75;;;;;;;17.93;78.38;96694.44;5038945;28;20232;-74
2023/05/02 10:58:43;;;;;;;4.45;2.83;;;;;;;18.02;77.73;96687.84;5038285;28;20215;-74
2023/05/02 11:01:36;;;;;;;5.05;3.10;;;;;;;18.28;73.92;96698.41;5038490;28;20224;-71
2023/05/02 11:04:05;;;;;;;6.10;2.92;;;;;;;18.07;73.08;96688.03;5038894;28;20304;-68
2023/05/02 11:06:33;;;;;;;6.80;3.45;;;;;;;18.12;73.02;96686.34;5038919;28;20237;-70
2023/05/02 11:09:32;;;;;;;3.25;2.22;;;;;;;17.94;69.04;96686.22;5038806;28;20299;-69
2023/05/02 11:12:00;;;;;;;4.55;3.03;;;;;;;18.02;71.42;96682.50;5038585;28;20780;-69
2023/05/02 11:14:47;;;;;;;4.30;2.83;;;;;;;17.78;72.50;96691.19;5038671;28;20290;-70
2023/05/02 11:17:16;;;;;;;4.88;3.00;;;;;;;17.88;73.72;96696.91;5038040;28;20228;-69
2023/05/02 11:20:26;;;;;;;4.80;3.40;;;;;;;17.75;73.35;96688.97;5037762;28;20212;-69
2023/05/02 11:22:54;;;;;;;5.82;2.78;;;;;;;18.33;70.98;96690.59;5037284;28;20205;-70
2023/05/02 11:25:36;;;;;;;5.13;2.95;;;;;;;18.40;72.92;96686.84;5033472;28;20225;-69
2023/05/02 11:28:28;;;;;;;6.00;3.15;;;;;;;17.92;73.09;96676.78;5035884;28;20201;-69
2023/05/02 11:30:54;;;;;;;4.68;3.17;;;;;;;18.18;71.10;96690.06;5037556;28;20212;-70
2023/05/02 11:33:22;;;;;;;3.78;2.53;;;;;;;18.24;67.14;96687.38;5037661;28;20212;-71
2023/05/02 11:35:49;;;;;;;2.92;2.10;;;;;;;18.47;71.13;96680.44;5037641;28;20225;-68